Time;durP1;ratioP1;P1;durP2;ratioP2;P2;SDS_P1;SDS_P2;PMS_P1;PMS_P2;Temp;Humidity;BMP_temperature;BMP_pressure;BME280_temperature;BME280_humidity;BME280_pressure;Samples;Min_cycle;Max_cycle;Signal;HPM_P1;HPM_P2
2023/08/13 00:01:05;;;;;;;6.97;3.97;;;18.90;69.20;;;;;;4936040;29;20241;-71
2023/08/13 00:03:30;;;;;;;8.20;3.63;;;18.90;69.60;;;;;;4936620;29;20597;-71
2023/08/13 00:05:56;;;;;;;4.63;4.13;;;18.90;69.70;;;;;;4936955;29;20510;-71
2023/08/13 00:08:21;;;;;;;5.40;3.20;;;18.80;69.60;;;;;;4937055;29;20214;-71
2023/08/13 00:10:47;;;;;;;5.33;4.30;;;18.80;70.30;;;;;;4937010;29;20261;-71
2023/08/13 00:13:13;;;;;;;4.80;3.90;;;18.80;70.80;;;;;;4936786;29;20179;-71
2023/08/13 00:15:38;;;;;;;7.27;4.37;;;18.80;70.20;;;;;;4936988;29;20199;-71
2023/08/13 00:18:05;;;;;;;4.93;3.83;;;18.80;70.90;;;;;;4936554;29;20202;-71
2023/08/13 00:20:30;;;;;;;5.20;3.97;;;18.70;71.60;;;;;;4936691;29;20213;-71
2023/08/13 00:22:56;;;;;;;5.60;4.20;;;18.70;72.50;;;;;;4936420;29;20921;-70
2023/08/13 00:25:21;;;;;;;5.80;4.17;;;18.70;71.90;;;;;;4936348;29;20224;-69
2023/08/13 00:27:47;;;;;;;6.13;3.43;;;18.70;71.60;;;;;;4936668;29;20266;-69
2023/08/13 00:30:12;;;;;;;6.63;4.30;;;18.60;72.20;;;;;;4936266;29;20207;-69
2023/08/13 00:32:38;;;;;;;4.73;4.33;;;18.70;72.00;;;;;;4934085;29;20645;-69
2023/08/13 00:35:04;;;;;;;7.10;4.80;;;18.60;71.60;;;;;;4936477;29;20198;-70
2023/08/13 00:37:29;;;;;;;5.30;3.80;;;18.60;71.00;;;;;;4936683;29;20554;-70
2023/08/13 00:39:55;;;;;;;4.83;4.20;;;18.60;70.00;;;;;;4936661;29;20928;-69
2023/08/13 00:42:20;;;;;;;3.80;3.40;;;18.60;69.40;;;;;;4936032;29;20696;-70
2023/08/13 00:44:46;;;;;;;4.87;4.13;;;18.60;69.40;;;;;;4936251;29;20678;-69
2023/08/13 00:47:11;;;;;;;4.77;4.27;;;18.50;69.30;;;;;;4935939;29;20570;-69
2023/08/13 00:49:37;;;;;;;4.90;4.07;;;18.50;70.20;;;;;;4936331;29;20546;-70
2023/08/13 00:52:02;;;;;;;5.87;3.73;;;18.50;70.20;;;;;;4935972;29;20179;-70
2023/08/13 00:54:30;;;;;;;6.10;5.23;;;18.40;69.90;;;;;;4936117;29;20202;-69
2023/08/13 00:56:56;;;;;;;3.80;3.23;;;18.40;70.60;;;;;;4936139;29;20217;-69
2023/08/13 00:59:23;;;;;;;5.30;4.17;;;18.40;70.30;;;;;;4935157;29;20846;-69
2023/08/13 01:01:48;;;;;;;4.70;3.80;;;18.30;71.60;;;;;;4935790;29;20434;-69
2023/08/13 01:04:14;;;;;;;4.90;4.13;;;18.30;71.60;;;;;;4935760;29;20528;-70
2023/08/13 01:07:06;;;;;;;4.27;3.77;;;18.30;71.80;;;;;;4935975;29;20233;-70
2023/08/13 01:09:47;;;;;;;4.37;3.40;;;18.30;71.60;;;;;;4936348;29;20217;-70
2023/08/13 01:12:34;;;;;;;5.03;3.80;;;18.40;71.00;;;;;;4935709;29;20407;-70
2023/08/13 01:15:15;;;;;;;5.30;4.10;;;18.40;69.80;;;;;;4935821;29;20445;-70
2023/08/13 01:17:43;;;;;;;5.00;4.33;;;18.40;70.40;;;;;;4934606;29;20434;-70
2023/08/13 01:20:09;;;;;;;8.83;3.90;;;18.30;71.20;;;;;;4936262;29;20430;-70
2023/08/13 01:22:38;;;;;;;5.00;3.63;;;18.30;71.70;;;;;;4936341;29;20422;-70
2023/08/13 01:25:07;;;;;;;5.10;4.60;;;18.30;71.10;;;;;;4937138;29;20865;-70
2023/08/13 01:27:56;;;;;;;4.57;3.17;;;18.40;71.30;;;;;;4936190;29;20995;-69
2023/08/13 01:30:45;;;;;;;7.40;4.43;;;18.40;69.40;;;;;;4937087;29;20934;-70
2023/08/13 01:33:18;;;;;;;6.93;4.13;;;18.40;70.30;;;;;;4936204;29;20501;-70
2023/08/13 01:35:44;;;;;;;4.60;3.30;;;18.40;69.60;;;;;;4936588;29;20431;-70
2023/08/13 01:38:10;;;;;;;4.83;4.43;;;18.50;70.00;;;;;;4936579;29;20517;-70
2023/08/13 01:40:36;;;;;;;4.00;3.50;;;18.60;70.10;;;;;;4935863;29;20183;-70
2023/08/13 01:43:01;;;;;;;6.63;3.77;;;18.70;68.10;;;;;;4935020;29;20782;-71
2023/08/13 01:45:27;;;;;;;4.30;3.47;;;18.70;68.70;;;;;;4934941;29;20241;-70
2023/08/13 01:47:53;;;;;;;4.17;3.20;;;18.80;67.40;;;;;;4935160;29;20174;-71
2023/08/13 01:50:20;;;;;;;3.27;2.97;;;18.90;66.40;;;;;;4935101;29;20175;-71
2023/08/13 01:52:46;;;;;;;5.07;3.10;;;19.00;63.90;;;;;;4934623;29;20190;-70
2023/08/13 01:55:12;;;;;;;5.30;4.10;;;19.10;64.00;;;;;;4934857;29;20782;-70
2023/08/13 01:57:37;;;;;;;3.70;2.90;;;19.10;63.30;;;;;;4935028;29;20252;-70
2023/08/13 02:00:06;;;;;;;3.90;3.30;;;19.20;62.70;;;;;;4935152;29;20186;-70
2023/08/13 02:02:33;;;;;;;3.97;3.53;;;19.30;62.60;;;;;;4934582;29;20645;-70
2023/08/13 02:04:59;;;;;;;5.07;3.30;;;19.30;61.60;;;;;;4934747;29;20462;-71
2023/08/13 02:07:24;;;;;;;3.43;2.40;;;19.30;61.50;;;;;;4934749;29;20441;-70
2023/08/13 02:09:50;;;;;;;4.40;3.77;;;19.30;61.10;;;;;;4934743;29;20182;-71
2023/08/13 02:12:15;;;;;;;4.70;3.87;;;19.40;60.60;;;;;;4934560;29;20183;-71
2023/08/13 02:14:41;;;;;;;2.90;2.53;;;19.40;59.70;;;;;;4934561;29;20562;-70
2023/08/13 02:17:12;;;;;;;4.20;3.73;;;19.40;59.80;;;;;;4934748;29;20230;-70
2023/08/13 02:19:38;;;;;;;5.37;3.70;;;19.30;59.60;;;;;;4934269;29;20193;-71
2023/08/13 02:22:04;;;;;;;5.30;3.10;;;19.20;59.50;;;;;;4934452;29;20485;-71
2023/08/13 02:24:30;;;;;;;3.23;2.93;;;19.10;60.80;;;;;;4934815;29;20474;-70
2023/08/13 02:26:55;;;;;;;4.67;3.07;;;19.10;61.40;;;;;;4934873;29;20269;-70
2023/08/13 02:29:21;;;;;;;3.37;2.57;;;19.10;61.20;;;;;;4935102;29;20186;-70
2023/08/13 02:31:46;;;;;;;3.80;2.77;;;19.10;62.10;;;;;;4934285;29;20191;-70
2023/08/13 02:34:12;;;;;;;4.20;3.43;;;19.10;61.30;;;;;;4935736;29;20210;-69
2023/08/13 02:36:37;;;;;;;4.50;3.67;;;19.20;60.90;;;;;;4935572;29;20261;-70
2023/08/13 02:39:03;;;;;;;4.23;3.20;;;19.20;60.30;;;;;;4934758;29;20435;-70
2023/08/13 02:41:28;;;;;;;4.40;4.00;;;19.20;61.10;;;;;;4934368;29;20183;-70
2023/08/13 02:43:55;;;;;;;3.13;2.50;;;19.30;61.10;;;;;;4934382;29;20207;-70
2023/08/13 02:46:22;;;;;;;5.37;4.00;;;19.30;59.60;;;;;;4934606;29;20182;-70
2023/08/13 02:48:48;;;;;;;5.30;3.63;;;19.20;59.50;;;;;;4949450;29;20421;-71
2023/08/13 02:51:14;;;;;;;3.63;3.27;;;19.10;62.40;;;;;;4935133;29;20402;-70
2023/08/13 02:53:41;;;;;;;4.07;2.90;;;19.10;64.10;;;;;;4935325;29;20406;-70
2023/08/13 02:56:07;;;;;;;4.93;4.20;;;19.00;64.40;;;;;;4938532;29;20763;-70
2023/08/13 02:58:33;;;;;;;4.40;3.43;;;19.10;64.70;;;;;;4938514;29;20442;-70
2023/08/13 03:00:59;;;;;;;5.03;3.33;;;19.10;63.50;;;;;;4938323;29;20434;-71
2023/08/13 03:03:25;;;;;;;3.60;2.93;;;19.20;63.90;;;;;;4938294;29;20185;-71
2023/08/13 03:05:50;;;;;;;13.77;4.27;;;19.30;63.10;;;;;;4938198;29;20566;-70
2023/08/13 03:08:16;;;;;;;4.20;3.33;;;19.20;63.20;;;;;;4938364;29;20422;-70
2023/08/13 03:10:41;;;;;;;4.53;4.13;;;19.20;63.70;;;;;;4938773;29;20186;-70
2023/08/13 03:13:07;;;;;;;4.43;3.50;;;19.20;64.70;;;;;;4938516;29;20293;-70
2023/08/13 03:15:33;;;;;;;3.23;2.90;;;19.20;65.00;;;;;;4939115;29;20198;-70
2023/08/13 03:17:58;;;;;;;8.50;4.43;;;19.10;65.30;;;;;;4938655;29;20182;-70
2023/08/13 03:20:24;;;;;;;4.37;3.70;;;19.00;66.40;;;;;;4938445;29;20210;-70
2023/08/13 03:22:49;;;;;;;4.77;4.37;;;18.90;69.00;;;;;;4937695;29;20183;-70
2023/08/13 03:25:15;;;;;;;4.20;3.80;;;18.80;69.60;;;;;;4937840;29;20210;-71
2023/08/13 03:27:41;;;;;;;5.43;3.63;;;18.90;70.30;;;;;;4937386;29;20193;-70
2023/08/13 03:30:07;;;;;;;6.03;3.97;;;18.80;69.50;;;;;;4937602;29;20175;-70
2023/08/13 03:32:32;;;;;;;5.57;3.40;;;18.80;71.20;;;;;;4937377;29;20202;-70
2023/08/13 03:34:58;;;;;;;5.53;4.43;;;18.90;70.80;;;;;;4937387;29;20934;-70
2023/08/13 03:37:23;;;;;;;3.90;3.33;;;19.00;69.70;;;;;;4937446;29;20522;-70
2023/08/13 03:39:49;;;;;;;4.63;3.57;;;19.00;68.40;;;;;;4937343;29;20645;-70
2023/08/13 03:42:14;;;;;;;4.37;3.97;;;19.00;67.70;;;;;;4936772;29;20195;-70
2023/08/13 03:44:40;;;;;;;5.03;3.40;;;19.00;67.80;;;;;;4937074;29;20210;-70
2023/08/13 03:47:06;;;;;;;4.23;3.70;;;19.00;68.20;;;;;;4937145;29;20171;-70
2023/08/13 03:49:32;;;;;;;5.80;4.23;;;19.10;67.40;;;;;;4937112;29;20431;-70
2023/08/13 03:51:58;;;;;;;4.60;4.03;;;19.10;67.60;;;;;;4936574;29;20201;-70
2023/08/13 03:54:24;;;;;;;5.33;3.97;;;19.10;67.10;;;;;;4936877;29;20442;-70
2023/08/13 03:56:50;;;;;;;4.30;3.30;;;19.10;66.90;;;;;;4936924;29;20175;-70
2023/08/13 03:59:15;;;;;;;4.20;3.23;;;19.00;68.70;;;;;;4936559;29;20438;-71
2023/08/13 04:01:41;;;;;;;7.33;3.90;;;19.10;68.70;;;;;;4936571;29;20266;-70
2023/08/13 04:04:06;;;;;;;4.10;3.27;;;19.10;67.70;;;;;;4936750;29;20217;-70
2023/08/13 04:06:32;;;;;;;4.27;3.87;;;19.10;67.90;;;;;;4935836;29;20179;-71
2023/08/13 04:08:58;;;;;;;4.27;3.60;;;19.10;67.50;;;;;;4936801;29;20178;-70
2023/08/13 04:11:23;;;;;;;4.17;3.33;;;19.20;67.60;;;;;;4936404;29;20433;-71
2023/08/13 04:13:49;;;;;;;4.37;3.53;;;19.10;68.20;;;;;;4936489;29;20203;-71
2023/08/13 04:16:15;;;;;;;4.90;3.83;;;19.10;69.00;;;;;;4936649;29;20317;-71
2023/08/13 04:18:40;;;;;;;3.50;3.17;;;19.10;69.80;;;;;;4936622;29;20617;-71
2023/08/13 04:21:06;;;;;;;5.23;4.70;;;19.10;69.80;;;;;;4936662;29;20179;-71
2023/08/13 04:23:31;;;;;;;6.70;5.00;;;19.00;70.80;;;;;;4935914;29;20649;-71
2023/08/13 04:25:57;;;;;;;5.00;3.83;;;19.00;70.50;;;;;;4936408;29;20238;-71
2023/08/13 04:28:22;;;;;;;5.40;4.20;;;19.00;70.90;;;;;;4936458;29;20637;-71
2023/08/13 04:30:48;;;;;;;8.10;4.10;;;19.00;71.40;;;;;;4936515;29;20614;-71
2023/08/13 04:33:14;;;;;;;4.77;3.53;;;19.00;73.00;;;;;;4936119;29;20178;-71
2023/08/13 04:35:39;;;;;;;3.90;3.50;;;19.10;72.00;;;;;;4936496;29;20688;-71
2023/08/13 04:38:05;;;;;;;8.27;3.97;;;19.10;72.10;;;;;;4936078;29;20246;-71
2023/08/13 04:40:30;;;;;;;5.23;3.97;;;19.10;72.10;;;;;;4936221;29;20675;-71
2023/08/13 04:42:56;;;;;;;4.13;3.50;;;19.20;71.20;;;;;;4935880;29;20175;-71
2023/08/13 04:45:21;;;;;;;4.00;3.53;;;19.20;70.90;;;;;;4936048;29;20217;-70
2023/08/13 04:47:47;;;;;;;3.87;3.50;;;19.20;70.00;;;;;;4936142;29;20225;-71
2023/08/13 04:50:13;;;;;;;3.97;3.57;;;19.30;70.80;;;;;;4936044;29;20544;-71
2023/08/13 04:52:39;;;;;;;4.40;3.70;;;19.40;70.20;;;;;;4935562;29;20186;-71
2023/08/13 04:55:05;;;;;;;6.40;4.50;;;19.40;69.80;;;;;;4935755;29;20442;-71
2023/08/13 04:57:30;;;;;;;4.77;4.27;;;19.40;70.20;;;;;;4935853;29;20735;-71
2023/08/13 04:59:57;;;;;;;6.10;4.67;;;19.40;70.20;;;;;;4935926;29;20415;-71
2023/08/13 05:02:22;;;;;;;5.47;4.63;;;19.30;71.30;;;;;;4935716;29;20629;-71
2023/08/13 05:04:48;;;;;;;5.80;3.60;;;19.30;71.20;;;;;;4935782;29;20549;-71
2023/08/13 05:07:13;;;;;;;4.70;4.17;;;19.40;71.40;;;;;;4935625;29;20174;-70
2023/08/13 05:09:39;;;;;;;7.10;4.67;;;19.40;70.40;;;;;;4935744;29;20559;-70
2023/08/13 05:12:05;;;;;;;5.83;5.10;;;19.40;70.20;;;;;;4934136;29;20245;-70
2023/08/13 05:14:31;;;;;;;4.90;3.73;;;19.40;70.10;;;;;;4935723;29;20195;-70
2023/08/13 05:16:56;;;;;;;6.80;4.70;;;19.30;70.00;;;;;;4935305;29;20983;-70
2023/08/13 05:19:22;;;;;;;4.97;4.47;;;19.30;70.10;;;;;;4935192;29;20683;-71
2023/08/13 05:21:47;;;;;;;7.00;5.30;;;19.30;70.10;;;;;;4935290;29;20210;-69
2023/08/13 05:24:13;;;;;;;9.80;5.97;;;19.30;70.10;;;;;;4935185;29;20221;-70
2023/08/13 05:26:38;;;;;;;5.27;4.37;;;19.20;71.10;;;;;;4935360;29;20175;-70
2023/08/13 05:29:04;;;;;;;10.07;5.43;;;19.30;70.10;;;;;;4935361;29;20179;-70
2023/08/13 05:31:30;;;;;;;6.00;4.67;;;19.30;69.30;;;;;;4935117;29;20213;-69
2023/08/13 05:33:59;;;;;;;6.63;4.60;;;19.30;70.00;;;;;;4934863;29;20210;-69
2023/08/13 05:36:25;;;;;;;5.23;4.70;;;19.20;71.00;;;;;;4935306;29;20206;-70
2023/08/13 05:38:51;;;;;;;4.30;3.90;;;19.10;72.00;;;;;;4934969;29;20425;-69
2023/08/13 05:41:16;;;;;;;4.83;4.27;;;19.10;73.60;;;;;;4935064;29;20411;-69
2023/08/13 05:43:42;;;;;;;7.80;4.60;;;19.10;73.50;;;;;;4934804;29;20198;-70
2023/08/13 05:46:07;;;;;;;5.17;4.67;;;19.10;74.40;;;;;;4935104;29;20210;-70
2023/08/13 05:48:33;;;;;;;6.70;5.00;;;19.10;75.10;;;;;;4935060;29;20185;-70
2023/08/13 05:50:59;;;;;;;6.40;5.40;;;19.10;76.60;;;;;;4935170;29;20179;-70
2023/08/13 05:53:24;;;;;;;7.40;4.67;;;19.10;77.50;;;;;;4934810;29;20179;-71
2023/08/13 05:55:50;;;;;;;7.17;4.80;;;19.20;76.40;;;;;;4935546;29;20190;-74
2023/08/13 05:58:16;;;;;;;5.00;4.60;;;19.30;76.00;;;;;;4935291;29;20269;-71
2023/08/13 06:00:42;;;;;;;5.90;4.70;;;19.40;75.70;;;;;;4934919;29;20446;-71
2023/08/13 06:03:08;;;;;;;6.33;5.40;;;19.40;76.20;;;;;;4934502;29;20190;-71
2023/08/13 06:05:34;;;;;;;6.60;5.67;;;19.40;75.00;;;;;;4934355;29;20313;-70
2023/08/13 06:07:59;;;;;;;4.70;4.30;;;19.40;74.00;;;;;;4936215;29;20210;-70
2023/08/13 06:10:25;;;;;;;5.87;5.27;;;19.50;75.30;;;;;;4935986;29;20454;-71
2023/08/13 06:12:51;;;;;;;4.63;4.10;;;19.50;74.20;;;;;;4935894;29;20238;-71
2023/08/13 06:15:16;;;;;;;5.20;4.57;;;19.50;73.80;;;;;;4951138;29;20213;-71
2023/08/13 06:17:42;;;;;;;5.13;4.50;;;19.50;73.50;;;;;;4935865;29;20194;-70
2023/08/13 06:20:10;;;;;;;4.83;4.20;;;19.50;73.30;;;;;;4934921;29;20218;-72
2023/08/13 06:22:35;;;;;;;6.17;3.97;;;19.60;72.50;;;;;;4934502;29;20186;-70
2023/08/13 06:25:01;;;;;;;5.33;4.80;;;19.70;72.40;;;;;;4934632;29;20477;-70
2023/08/13 06:27:27;;;;;;;5.20;4.67;;;19.70;71.70;;;;;;4934723;29;20720;-70
2023/08/13 06:29:52;;;;;;;4.60;4.20;;;19.60;72.20;;;;;;4937038;29;20185;-71
2023/08/13 06:32:18;;;;;;;5.20;4.70;;;19.60;72.10;;;;;;4940179;29;20179;-72
2023/08/13 06:34:44;;;;;;;5.87;5.37;;;19.60;73.80;;;;;;4941084;29;20258;-72
2023/08/13 06:37:09;;;;;;;5.43;4.40;;;19.60;73.40;;;;;;4939910;29;20189;-71
2023/08/13 06:39:35;;;;;;;4.90;4.20;;;19.60;72.70;;;;;;4939828;29;20249;-71
2023/08/13 06:42:00;;;;;;;6.50;4.37;;;19.50;72.60;;;;;;4939211;29;20193;-71
2023/08/13 06:44:27;;;;;;;5.57;4.97;;;19.60;73.10;;;;;;4938535;29;20634;-71
2023/08/13 06:46:52;;;;;;;5.47;4.73;;;19.70;75.10;;;;;;4939165;29;20229;-72
2023/08/13 06:49:18;;;;;;;6.10;5.50;;;19.80;73.40;;;;;;4939422;29;20505;-72
2023/08/13 06:51:43;;;;;;;6.00;5.10;;;19.90;74.50;;;;;;4937959;29;20175;-72
2023/08/13 06:54:09;;;;;;;8.73;5.13;;;20.00;73.00;;;;;;4938290;29;20760;-69
2023/08/13 06:56:36;;;;;;;5.23;3.80;;;20.10;70.80;;;;;;4937594;29;20186;-70
2023/08/13 06:59:02;;;;;;;3.77;3.20;;;20.20;70.90;;;;;;4937850;29;20189;-69
2023/08/13 07:01:29;;;;;;;9.03;4.30;;;20.20;70.50;;;;;;4935877;29;20506;-70
2023/08/13 07:03:57;;;;;;;5.20;4.70;;;20.30;69.00;;;;;;4953876;28;20524;-70
2023/08/13 07:06:23;;;;;;;5.30;4.10;;;20.10;69.80;;;;;;4952924;28;20480;-70
2023/08/13 07:08:49;;;;;;;5.87;4.63;;;20.10;70.80;;;;;;4953313;28;20426;-68
2023/08/13 07:11:14;;;;;;;5.63;3.80;;;20.10;70.80;;;;;;4954051;28;20764;-70
2023/08/13 07:13:40;;;;;;;6.30;5.07;;;20.10;70.80;;;;;;4947735;28;20207;-70
2023/08/13 07:16:09;;;;;;;5.20;4.37;;;20.00;70.70;;;;;;4934431;29;20201;-69
2023/08/13 07:18:36;;;;;;;6.63;5.70;;;20.10;70.80;;;;;;4934273;29;20194;-70
2023/08/13 07:21:02;;;;;;;9.43;5.40;;;20.30;69.30;;;;;;4932537;29;20529;-70
2023/08/13 07:23:28;;;;;;;6.43;5.17;;;20.20;67.80;;;;;;4933285;29;20516;-69
2023/08/13 07:25:53;;;;;;;6.40;5.40;;;20.20;68.30;;;;;;4935279;29;20245;-70
2023/08/13 07:28:19;;;;;;;6.17;5.57;;;20.20;70.90;;;;;;4933961;29;20465;-70
2023/08/13 07:30:45;;;;;;;6.30;4.63;;;20.40;69.80;;;;;;4934115;29;20187;-70
2023/08/13 07:33:11;;;;;;;5.97;5.37;;;20.60;69.50;;;;;;4934729;29;20665;-69
2023/08/13 07:35:38;;;;;;;5.00;3.93;;;21.00;65.30;;;;;;4933464;29;20453;-70
2023/08/13 07:38:03;;;;;;;3.73;3.27;;;21.70;63.50;;;;;;4933958;29;20194;-70
2023/08/13 07:40:29;;;;;;;4.60;4.20;;;22.50;51.40;;;;;;4933944;29;20435;-70
2023/08/13 07:42:59;;;;;;;4.87;3.47;;;22.80;45.10;;;;;;4933258;29;20194;-70
2023/08/13 07:45:24;;;;;;;4.50;4.00;;;23.00;42.70;;;;;;4936603;29;20470;-70
2023/08/13 07:47:50;;;;;;;4.17;3.53;;;23.40;42.90;;;;;;4937037;29;20509;-71
2023/08/13 07:50:15;;;;;;;4.47;3.50;;;23.60;39.50;;;;;;4937310;29;20265;-70
2023/08/13 07:52:42;;;;;;;4.30;3.53;;;23.90;36.80;;;;;;4936741;29;20266;-71
2023/08/13 07:55:08;;;;;;;5.53;3.27;;;23.90;34.40;;;;;;4937659;29;20245;-70
2023/08/13 07:57:34;;;;;;;4.27;3.27;;;24.00;35.10;;;;;;4937358;29;20430;-72
2023/08/13 07:59:59;;;;;;;4.97;3.53;;;24.40;33.10;;;;;;4937578;29;20940;-72
2023/08/13 08:02:25;;;;;;;5.13;3.80;;;25.00;29.90;;;;;;4938153;29;20453;-72
2023/08/13 08:04:51;;;;;;;3.97;3.20;;;25.30;26.00;;;;;;4938841;29;20684;-72
2023/08/13 08:07:18;;;;;;;4.33;3.10;;;26.00;25.80;;;;;;4937681;29;20310;-72
2023/08/13 08:09:44;;;;;;;3.80;3.30;;;27.00;22.00;;;;;;4937481;29;20190;-70
2023/08/13 08:12:10;;;;;;;3.87;3.33;;;27.40;18.70;;;;;;4932524;29;21042;-69
2023/08/13 08:14:35;;;;;;;3.50;3.20;;;28.00;17.10;;;;;;4935640;29;20214;-71
2023/08/13 08:17:05;;;;;;;4.43;3.30;;;27.90;17.00;;;;;;4928545;29;20705;-71
2023/08/13 08:19:32;;;;;;;4.20;3.63;;;27.50;16.80;;;;;;4931484;29;20190;-71
2023/08/13 08:21:58;;;;;;;3.70;3.40;;;26.70;18.70;;;;;;4935875;29;20434;-70
2023/08/13 08:24:24;;;;;;;4.60;3.83;;;26.20;21.50;;;;;;4936439;29;20485;-70
2023/08/13 08:26:50;;;;;;;3.90;2.90;;;25.80;23.40;;;;;;4939535;29;20435;-70
2023/08/13 08:29:16;;;;;;;5.20;4.57;;;25.30;24.50;;;;;;4914901;29;20432;-70
2023/08/13 08:31:41;;;;;;;4.73;4.33;;;25.00;27.10;;;;;;4932577;29;20266;-70
2023/08/13 08:34:07;;;;;;;4.53;3.83;;;25.00;28.10;;;;;;4947630;29;20248;-69
2023/08/13 08:36:32;;;;;;;4.10;3.63;;;24.90;28.00;;;;;;4967544;28;20190;-72
2023/08/13 08:38:58;;;;;;;5.40;4.63;;;25.10;28.20;;;;;;4954095;28;20182;-71
2023/08/13 08:41:30;;;;;;;4.70;3.80;;;25.50;26.20;;;;;;4952238;28;20252;-70
2023/08/13 08:43:58;;;;;;;5.23;3.33;;;26.00;25.90;;;;;;4926187;29;20341;-70
2023/08/13 08:46:27;;;;;;;4.00;2.70;;;26.90;22.80;;;;;;4924857;29;20510;-69
2023/08/13 08:48:54;;;;;;;4.33;3.93;;;27.50;19.20;;;;;;4915125;29;20443;-70
2023/08/13 08:51:22;;;;;;;4.93;3.57;;;27.50;18.70;;;;;;4914085;29;20457;-70
2023/08/13 08:53:52;;;;;;;5.20;3.70;;;27.40;19.40;;;;;;4913783;29;20822;-70
2023/08/13 08:56:18;;;;;;;3.50;3.20;;;27.20;20.20;;;;;;4914792;29;20530;-69
2023/08/13 08:58:44;;;;;;;6.50;4.43;;;27.00;20.10;;;;;;4932011;29;20590;-70
2023/08/13 09:01:09;;;;;;;4.50;3.63;;;26.70;21.90;;;;;;4933673;29;20187;-70
2023/08/13 09:03:36;;;;;;;3.37;3.07;;;27.00;21.00;;;;;;4917399;29;20202;-71
2023/08/13 09:06:01;;;;;;;4.80;3.30;;;27.20;20.80;;;;;;4915183;29;20215;-71
2023/08/13 09:08:27;;;;;;;7.60;3.87;;;27.30;19.40;;;;;;4929981;29;20431;-70
2023/08/13 09:10:53;;;;;;;3.57;3.27;;;27.10;20.20;;;;;;4933409;29;20194;-71
2023/08/13 09:13:18;;;;;;;5.00;3.93;;;26.90;20.50;;;;;;4932941;29;20213;-71
2023/08/13 09:15:48;;;;;;;5.27;4.00;;;26.60;21.20;;;;;;4933269;29;20301;-71
2023/08/13 09:18:14;;;;;;;5.73;3.90;;;26.20;21.70;;;;;;4932334;29;20206;-71
2023/08/13 09:20:48;;;;;;;3.40;2.73;;;25.70;23.80;;;;;;4932247;29;20455;-71
2023/08/13 09:23:24;;;;;;;5.10;3.60;;;25.60;25.40;;;;;;4936458;29;20255;-71
2023/08/13 09:25:54;;;;;;;4.33;3.63;;;25.70;25.20;;;;;;4929043;29;20911;-70
2023/08/13 09:28:20;;;;;;;5.07;3.50;;;25.90;24.80;;;;;;4919694;29;20432;-71
2023/08/13 09:30:46;;;;;;;5.47;3.70;;;25.90;23.90;;;;;;4934959;29;20793;-70
2023/08/13 09:33:14;;;;;;;3.90;3.60;;;25.80;24.20;;;;;;4936511;29;20435;-70
2023/08/13 09:35:41;;;;;;;4.70;4.30;;;25.90;26.10;;;;;;4935521;29;20505;-72
2023/08/13 09:38:07;;;;;;;5.00;3.70;;;26.40;24.10;;;;;;4920695;29;20514;-71
2023/08/13 09:40:33;;;;;;;5.20;3.40;;;26.70;21.50;;;;;;4927524;29;20438;-71
2023/08/13 09:43:05;;;;;;;4.80;3.37;;;27.10;21.00;;;;;;4933823;29;20261;-71
2023/08/13 09:45:32;;;;;;;5.10;3.20;;;27.60;20.20;;;;;;4949692;29;21039;-71
2023/08/13 09:48:02;;;;;;;3.57;3.03;;;27.90;17.90;;;;;;4934893;29;20450;-70
2023/08/13 09:50:28;;;;;;;3.60;3.13;;;28.00;17.70;;;;;;4933238;29;20446;-72
2023/08/13 09:52:56;;;;;;;4.70;3.10;;;28.70;16.70;;;;;;4930060;29;20458;-72
2023/08/13 09:55:27;;;;;;;4.87;4.13;;;28.80;16.40;;;;;;4954698;28;20489;-72
2023/08/13 09:57:53;;;;;;;4.90;4.33;;;29.20;14.50;;;;;;4948719;28;20442;-72
2023/08/13 10:00:20;;;;;;;7.37;4.10;;;28.80;14.20;;;;;;4931670;29;20419;-72
2023/08/13 10:02:47;;;;;;;4.37;3.90;;;28.50;15.40;;;;;;4931480;29;20427;-71
2023/08/13 10:05:13;;;;;;;5.17;4.03;;;28.20;17.20;;;;;;4934907;29;20470;-70
2023/08/13 10:07:40;;;;;;;4.27;3.87;;;27.60;18.10;;;;;;4935192;29;20411;-72
2023/08/13 10:10:06;;;;;;;3.70;3.30;;;27.50;18.90;;;;;;4936150;29;20431;-72
2023/08/13 10:12:32;;;;;;;4.80;3.60;;;27.30;20.10;;;;;;4935429;29;21019;-73
2023/08/13 10:14:59;;;;;;;5.73;3.47;;;27.30;19.70;;;;;;4934641;29;20486;-72
2023/08/13 10:17:26;;;;;;;4.47;3.67;;;27.30;18.50;;;;;;4934708;29;20193;-72
2023/08/13 10:19:55;;;;;;;4.70;3.90;;;27.00;21.00;;;;;;4934711;29;20418;-71
2023/08/13 10:22:44;;;;;;;5.33;3.90;;;26.90;21.70;;;;;;4934783;29;20967;-72
2023/08/13 10:25:44;;;;;;;5.13;4.23;;;26.80;23.00;;;;;;4933794;29;20579;-72
2023/08/13 10:28:23;;;;;;;4.07;3.23;;;26.70;23.30;;;;;;4934696;29;20917;-72
2023/08/13 10:30:49;;;;;;;4.37;3.97;;;26.80;24.20;;;;;;4934648;29;20505;-72
2023/08/13 10:33:15;;;;;;;5.67;4.07;;;26.70;22.30;;;;;;4933498;29;20871;-71
2023/08/13 10:35:42;;;;;;;3.90;3.53;;;26.60;23.20;;;;;;4934945;29;20442;-72
2023/08/13 10:38:08;;;;;;;4.53;3.70;;;27.00;22.90;;;;;;4934340;29;20218;-72
2023/08/13 10:40:34;;;;;;;4.63;3.87;;;27.30;21.80;;;;;;4934362;29;20419;-71
2023/08/13 10:43:02;;;;;;;4.80;4.30;;;27.60;21.80;;;;;;4934413;29;20426;-70
2023/08/13 10:45:35;;;;;;;7.73;4.50;;;28.10;20.40;;;;;;4934394;29;20461;-72
2023/08/13 10:48:09;;;;;;;5.07;3.80;;;28.30;18.90;;;;;;4935058;29;20446;-73
2023/08/13 10:50:39;;;;;;;5.13;3.57;;;28.50;19.30;;;;;;4934574;29;20784;-72
2023/08/13 10:53:07;;;;;;;3.60;3.30;;;29.00;18.60;;;;;;4934120;29;20932;-71
2023/08/13 10:55:41;;;;;;;7.03;4.47;;;28.60;18.40;;;;;;4934720;29;20438;-70
2023/08/13 10:58:08;;;;;;;4.73;4.17;;;28.40;17.80;;;;;;4935110;29;20466;-72
2023/08/13 11:00:43;;;;;;;5.60;4.87;;;28.10;18.20;;;;;;4934675;29;20418;-72
2023/08/13 11:03:20;;;;;;;7.07;5.13;;;27.80;19.60;;;;;;4933776;29;20497;-73
2023/08/13 11:05:47;;;;;;;5.07;4.03;;;28.00;20.10;;;;;;4934372;29;20485;-72
2023/08/13 11:08:21;;;;;;;5.83;4.30;;;28.10;19.90;;;;;;4934482;29;20905;-72
2023/08/13 11:10:47;;;;;;;5.07;4.40;;;28.50;18.80;;;;;;4934477;29;20410;-72
2023/08/13 11:13:15;;;;;;;5.73;5.10;;;28.60;17.90;;;;;;4934215;29;20980;-73
2023/08/13 11:15:47;;;;;;;6.07;4.93;;;28.30;18.80;;;;;;4935899;29;20453;-73
2023/08/13 11:18:13;;;;;;;7.63;4.10;;;27.80;19.50;;;;;;4937758;29;20854;-72
2023/08/13 11:20:39;;;;;;;6.10;4.30;;;28.00;20.70;;;;;;4938079;29;20529;-73
2023/08/13 11:23:05;;;;;;;6.90;4.33;;;27.70;21.40;;;;;;4937586;29;20221;-73
2023/08/13 11:25:30;;;;;;;8.13;5.40;;;27.80;20.90;;;;;;4937734;29;20505;-72
2023/08/13 11:27:56;;;;;;;4.50;3.80;;;28.20;19.70;;;;;;4937710;29;20187;-72
2023/08/13 11:30:21;;;;;;;4.93;3.87;;;28.40;19.50;;;;;;4937660;29;20254;-72
2023/08/13 11:32:47;;;;;;;4.43;4.00;;;28.50;18.50;;;;;;4937467;29;20224;-72
2023/08/13 11:35:13;;;;;;;5.77;3.73;;;28.80;18.30;;;;;;4937892;29;20206;-73
2023/08/13 11:37:39;;;;;;;5.60;5.10;;;28.40;18.50;;;;;;4937483;29;20178;-72
2023/08/13 11:40:06;;;;;;;4.07;3.40;;;28.30;18.70;;;;;;4936013;29;20187;-72
2023/08/13 11:42:32;;;;;;;6.90;5.90;;;28.20;20.10;;;;;;4937543;29;20429;-72
2023/08/13 11:44:58;;;;;;;5.50;4.97;;;28.10;20.20;;;;;;4938068;29;20653;-71
2023/08/13 11:47:27;;;;;;;5.33;4.43;;;28.20;20.90;;;;;;4939320;29;20419;-72
2023/08/13 11:49:58;;;;;;;5.23;4.73;;;28.40;19.30;;;;;;4937478;29;20248;-71
2023/08/13 11:52:24;;;;;;;5.83;3.83;;;28.40;19.40;;;;;;4936893;29;20423;-71
2023/08/13 11:54:51;;;;;;;5.47;3.60;;;28.60;20.30;;;;;;4937202;29;20510;-71
2023/08/13 11:57:18;;;;;;;6.03;5.23;;;28.50;20.20;;;;;;4937034;29;20888;-71
2023/08/13 11:59:46;;;;;;;4.63;4.23;;;28.10;20.50;;;;;;4937018;29;20422;-71
2023/08/13 12:02:13;;;;;;;4.87;4.37;;;27.40;23.50;;;;;;4936780;29;20931;-71
2023/08/13 12:04:39;;;;;;;5.93;4.87;;;27.10;25.00;;;;;;4937043;29;21066;-72
2023/08/13 12:07:09;;;;;;;5.03;4.40;;;26.90;26.50;;;;;;4936403;29;20547;-71
2023/08/13 12:09:34;;;;;;;5.13;4.10;;;26.60;27.20;;;;;;4937133;29;20257;-71
2023/08/13 12:12:00;;;;;;;5.43;5.00;;;26.50;28.40;;;;;;4930802;29;20574;-72
2023/08/13 12:14:25;;;;;;;5.40;3.87;;;26.50;28.90;;;;;;4936267;29;20719;-71
2023/08/13 12:16:51;;;;;;;4.50;4.10;;;26.70;29.00;;;;;;4944893;29;20592;-72
2023/08/13 12:19:17;;;;;;;5.47;4.70;;;26.80;28.70;;;;;;4935832;28;20217;-71
2023/08/13 12:21:42;;;;;;;4.23;3.83;;;27.10;28.50;;;;;;4932598;29;20573;-71
2023/08/13 12:24:08;;;;;;;4.40;4.00;;;27.30;26.10;;;;;;4923573;29;20223;-72
2023/08/13 12:26:34;;;;;;;6.40;4.93;;;27.80;25.30;;;;;;4913689;29;20191;-72
2023/08/13 12:29:00;;;;;;;4.93;3.50;;;27.80;23.20;;;;;;4914054;29;20423;-70
2023/08/13 12:31:26;;;;;;;5.93;4.40;;;28.20;22.10;;;;;;4914069;29;20247;-70
2023/08/13 12:33:52;;;;;;;3.93;3.57;;;28.40;20.90;;;;;;4912969;29;20200;-72
2023/08/13 12:36:18;;;;;;;5.17;4.47;;;28.70;20.10;;;;;;4914223;29;20783;-72
2023/08/13 12:38:44;;;;;;;4.70;4.23;;;28.80;18.70;;;;;;4914687;29;20609;-72
2023/08/13 12:41:10;;;;;;;6.43;4.50;;;29.10;18.30;;;;;;4913423;29;20434;-72
2023/08/13 12:43:37;;;;;;;4.90;4.40;;;29.70;18.00;;;;;;4914236;29;20238;-73
2023/08/13 12:46:06;;;;;;;4.03;3.63;;;29.90;15.10;;;;;;4913125;29;21121;-73